createdAt,value
2017-10-11T00:02:01.946Z,10.07
2017-10-11T00:04:30.230Z,9.63
2017-10-11T00:06:58.486Z,9.90
2017-10-11T00:09:26.010Z,9.83
2017-10-11T00:11:53.502Z,9.80
2017-10-11T00:14:21.014Z,9.73
2017-10-11T00:16:48.511Z,10.60
2017-10-11T00:19:16.022Z,9.70
2017-10-11T00:21:43.523Z,10.20
2017-10-11T00:24:11.039Z,10.20
2017-10-11T00:26:38.537Z,10.60
2017-10-11T00:29:06.062Z,10.27
2017-10-11T00:31:33.554Z,9.63
2017-10-11T00:34:01.086Z,10.87
2017-10-11T00:36:28.582Z,10.60
2017-10-11T00:38:56.097Z,11.30
2017-10-11T00:41:23.749Z,10.40
2017-10-11T00:43:51.274Z,12.00
2017-10-11T00:46:18.772Z,10.43
2017-10-11T00:48:46.286Z,11.30
2017-10-11T00:51:14.550Z,11.50
2017-10-11T00:53:42.071Z,10.30
2017-10-11T00:56:09.567Z,10.93
2017-10-11T00:58:37.087Z,10.93
2017-10-11T01:01:04.586Z,11.00
2017-10-11T01:03:32.118Z,11.03
2017-10-11T01:05:59.609Z,11.20
2017-10-11T01:08:27.126Z,11.00
2017-10-11T01:10:54.625Z,11.80
2017-10-11T01:13:22.151Z,11.27
2017-10-11T01:15:49.637Z,11.50
2017-10-11T01:18:17.159Z,11.63
2017-10-11T01:20:44.654Z,12.47
2017-10-11T01:23:12.174Z,12.97
2017-10-11T01:25:39.665Z,11.20
2017-10-11T01:28:07.187Z,11.60
2017-10-11T01:30:34.687Z,11.13
2017-10-11T01:33:02.201Z,12.17
2017-10-11T01:35:29.699Z,12.00
2017-10-11T01:37:57.214Z,12.17
2017-10-11T01:40:24.718Z,11.30
2017-10-11T01:42:52.218Z,12.13
2017-10-11T01:45:19.739Z,12.17
2017-10-11T01:47:47.238Z,11.20
2017-10-11T01:50:14.760Z,11.17
2017-10-11T01:52:43.026Z,11.30
2017-10-11T01:55:16.266Z,10.97
2017-10-11T01:57:43.763Z,11.80
2017-10-11T02:00:11.278Z,11.97
2017-10-11T02:02:38.782Z,11.70
2017-10-11T02:05:06.294Z,11.50
2017-10-11T02:07:33.790Z,11.67
2017-10-11T02:10:01.305Z,11.30
2017-10-11T02:12:29.574Z,12.43
2017-10-11T02:14:57.858Z,12.13
2017-10-11T02:17:26.122Z,11.57
2017-10-11T02:19:54.406Z,11.63
2017-10-11T02:22:22.669Z,10.40
2017-10-11T02:24:50.955Z,10.70
2017-10-11T02:27:19.221Z,9.47
2017-10-11T02:29:46.730Z,8.50
2017-10-11T02:32:14.250Z,8.93
2017-10-11T02:34:42.530Z,9.30
2017-10-11T02:37:10.782Z,8.87
2017-10-11T02:39:38.293Z,7.67
2017-10-11T02:42:05.782Z,7.17
2017-10-11T02:44:33.285Z,7.60
2017-10-11T02:47:01.533Z,7.17
2017-10-11T02:49:29.042Z,6.77
2017-10-11T02:51:56.539Z,6.33
2017-10-11T02:54:24.050Z,6.60
2017-10-11T02:56:51.537Z,5.43
2017-10-11T02:59:19.047Z,6.40
2017-10-11T03:01:47.293Z,6.00
2017-10-11T03:04:14.798Z,5.90
2017-10-11T03:06:42.286Z,5.30
2017-10-11T03:09:09.799Z,5.00
2017-10-11T03:11:38.060Z,4.60
2017-10-11T03:14:06.337Z,5.00
2017-10-11T03:16:34.585Z,5.60
2017-10-11T03:19:02.094Z,5.50
2017-10-11T03:21:29.581Z,5.03
2017-10-11T03:23:57.090Z,4.57
2017-10-11T03:26:25.347Z,4.60
2017-10-11T03:28:52.857Z,4.13
2017-10-11T03:31:20.342Z,4.90
2017-10-11T03:33:47.851Z,4.30
2017-10-11T03:36:16.097Z,4.37
2017-10-11T03:38:43.602Z,4.70
2017-10-11T03:41:11.090Z,4.60
2017-10-11T03:43:38.593Z,4.67
2017-10-11T03:46:06.841Z,4.67
2017-10-11T03:48:34.350Z,4.13
2017-10-11T03:51:01.838Z,4.20
2017-10-11T03:53:29.340Z,4.37
2017-10-11T03:55:57.594Z,4.40
2017-10-11T03:58:25.862Z,4.50
2017-10-11T04:00:53.343Z,5.00
2017-10-11T04:03:21.617Z,4.80
2017-10-11T04:05:49.874Z,4.27
2017-10-11T04:08:17.388Z,4.93
2017-10-11T04:10:44.878Z,4.50
2017-10-11T04:13:12.394Z,4.60
2017-10-11T04:15:39.878Z,4.70
2017-10-11T04:18:07.386Z,5.10
2017-10-11T04:20:34.869Z,5.23
2017-10-11T04:23:02.382Z,5.50
2017-10-11T04:25:29.870Z,5.77
2017-10-11T04:27:58.145Z,5.50
2017-10-11T04:30:26.397Z,5.60
2017-10-11T04:32:53.900Z,6.30
2017-10-11T04:35:21.389Z,5.80
2017-10-11T04:37:48.893Z,6.17
2017-10-11T04:40:17.146Z,7.00
2017-10-11T04:42:44.662Z,7.37
2017-10-11T04:45:12.157Z,6.80
2017-10-11T04:47:39.669Z,7.03
2017-10-11T04:50:07.149Z,7.60
2017-10-11T04:52:34.658Z,7.27
2017-10-11T04:55:02.909Z,8.37
2017-10-11T04:57:30.422Z,8.80
2017-10-11T04:59:57.913Z,7.97
2017-10-11T05:02:25.418Z,9.00
2017-10-11T05:04:53.673Z,9.03
2017-10-11T05:07:21.178Z,7.63
2017-10-11T05:09:48.665Z,8.20
2017-10-11T05:12:16.166Z,8.30
2017-10-11T05:14:44.413Z,7.70
2017-10-11T05:17:11.913Z,7.87
2017-10-11T05:19:39.405Z,7.97
2017-10-11T05:22:06.905Z,8.10
2017-10-11T05:24:34.395Z,7.77
2017-10-11T05:27:01.914Z,7.00
2017-10-11T05:29:30.166Z,8.07
2017-10-11T05:31:57.682Z,7.40
2017-10-11T05:34:25.169Z,7.50
2017-10-11T05:36:52.681Z,8.37
2017-10-11T05:39:20.934Z,8.10
2017-10-11T05:41:48.451Z,7.60
2017-10-11T05:44:15.954Z,7.77
2017-10-11T05:46:43.467Z,7.47
2017-10-11T05:49:10.958Z,26.10
2017-10-11T05:51:38.462Z,7.47
2017-10-11T05:54:05.950Z,8.30
2017-10-11T05:56:33.462Z,7.37
2017-10-11T05:59:01.709Z,7.70
2017-10-11T06:01:29.194Z,7.67
2017-10-11T06:03:57.461Z,7.50
2017-10-11T06:06:24.949Z,7.93
2017-10-11T06:08:52.459Z,8.00
2017-10-11T06:11:19.953Z,7.70
2017-10-11T06:13:48.225Z,7.20
2017-10-11T06:16:16.477Z,9.23
2017-10-11T06:18:43.994Z,7.93
2017-10-11T06:21:11.486Z,8.03
2017-10-11T06:23:39.001Z,6.57
2017-10-11T06:26:06.497Z,7.50
2017-10-11T06:28:34.002Z,6.77
2017-10-11T06:31:01.485Z,7.40
2017-10-11T06:33:28.985Z,6.50
2017-10-11T06:35:56.470Z,6.70
2017-10-11T06:38:23.985Z,6.53
2017-10-11T06:40:51.480Z,6.33
2017-10-11T06:43:19.750Z,6.40
2017-10-11T06:45:48.017Z,6.37
2017-10-11T06:48:15.517Z,6.00
2017-10-11T06:50:43.005Z,6.20
2017-10-11T06:53:10.509Z,9.37
2017-10-11T06:55:38.769Z,19.23
2017-10-11T06:58:07.049Z,6.87
2017-10-11T07:00:34.538Z,6.70
2017-10-11T07:03:02.053Z,6.70
2017-10-11T07:05:29.537Z,6.80
2017-10-11T07:07:57.065Z,6.63
2017-10-11T07:10:24.550Z,6.73
2017-10-11T07:12:52.816Z,6.83
2017-10-11T07:15:21.070Z,6.77
2017-10-11T07:17:48.587Z,6.77
2017-10-11T07:20:16.078Z,6.60
2017-10-11T07:22:43.585Z,6.53
2017-10-11T07:25:11.838Z,6.70
2017-10-11T07:27:39.353Z,6.73
2017-10-11T07:30:06.833Z,6.40
2017-10-11T07:32:34.345Z,7.10
2017-10-11T07:35:01.825Z,7.40
2017-10-11T07:37:29.333Z,7.30
2017-10-11T07:39:56.818Z,7.47
2017-10-11T07:42:24.326Z,7.63
2017-10-11T07:44:51.809Z,7.00
2017-10-11T07:47:20.093Z,7.10
2017-10-11T07:49:48.345Z,8.20
2017-10-11T07:52:15.857Z,7.90
2017-10-11T07:54:43.337Z,7.10
2017-10-11T07:57:10.841Z,7.27
2017-10-11T07:59:39.090Z,6.60
2017-10-11T08:02:06.593Z,6.70
2017-10-11T08:04:34.078Z,6.60
2017-10-11T08:07:01.590Z,5.83
2017-10-11T08:09:29.837Z,6.60
2017-10-11T08:11:57.350Z,6.20
2017-10-11T08:14:24.837Z,5.77
2017-10-11T08:16:52.349Z,6.40
2017-10-11T08:19:20.598Z,6.47
2017-10-11T08:21:48.106Z,5.40
2017-10-11T08:24:15.594Z,6.33
2017-10-11T08:26:43.105Z,6.20
2017-10-11T08:29:10.600Z,6.03
2017-10-11T08:31:38.105Z,5.80
2017-10-11T08:34:06.358Z,6.63
2017-10-11T08:36:33.866Z,6.33
2017-10-11T08:39:01.358Z,6.60
2017-10-11T08:41:28.866Z,5.87
2017-10-11T08:43:57.118Z,5.20
2017-10-11T08:46:24.630Z,6.10
2017-10-11T08:48:52.118Z,6.37
2017-10-11T08:51:19.630Z,5.67
2017-10-11T08:53:47.113Z,4.70
2017-10-11T08:56:14.622Z,6.30
2017-10-11T08:58:42.869Z,4.50
2017-10-11T09:01:10.377Z,5.20
2017-10-11T09:03:37.866Z,4.77
2017-10-11T09:06:05.374Z,4.90
2017-10-11T09:08:33.631Z,3.97
2017-10-11T09:11:01.138Z,3.60
2017-10-11T09:13:28.626Z,3.60
2017-10-11T09:15:56.134Z,3.33
2017-10-11T09:18:24.381Z,3.67
2017-10-11T09:20:52.650Z,3.50
2017-10-11T09:23:21.653Z,3.57
2017-10-11T09:25:49.925Z,3.60
2017-10-11T09:28:18.181Z,3.10
2017-10-11T09:30:45.691Z,3.30
2017-10-11T09:33:13.943Z,3.10
2017-10-11T09:35:42.230Z,3.20
2017-10-11T09:38:10.485Z,3.23
2017-10-11T09:40:37.989Z,3.00
2017-10-11T09:43:05.482Z,2.90
2017-10-11T09:45:32.991Z,2.90
2017-10-11T09:48:01.241Z,2.67
2017-10-11T09:50:28.751Z,3.17
2017-10-11T09:52:56.233Z,2.77
2017-10-11T09:55:23.738Z,2.80
2017-10-11T09:57:51.985Z,2.57
2017-10-11T10:00:19.489Z,2.43
2017-10-11T10:02:46.969Z,2.10
2017-10-11T10:05:14.480Z,2.70
2017-10-11T10:07:42.734Z,2.80
2017-10-11T10:10:10.242Z,2.90
2017-10-11T10:12:37.729Z,2.40
2017-10-11T10:15:05.234Z,2.57
2017-10-11T10:17:33.482Z,2.33
2017-10-11T10:20:00.985Z,2.70
2017-10-11T10:22:28.469Z,3.00
2017-10-11T10:24:55.982Z,2.50
2017-10-11T10:27:24.229Z,2.70
2017-10-11T10:29:51.734Z,2.43
2017-10-11T10:32:19.222Z,2.50
2017-10-11T10:34:46.705Z,3.13
2017-10-11T10:37:14.209Z,2.60
2017-10-11T10:39:41.694Z,2.60
2017-10-11T10:42:09.197Z,2.50
2017-10-11T10:44:36.685Z,2.60
2017-10-11T10:47:04.189Z,2.43
2017-10-11T10:49:32.455Z,2.30
2017-10-11T10:51:59.965Z,2.70
2017-10-11T10:54:28.213Z,2.40
2017-10-11T10:56:55.723Z,2.57
2017-10-11T10:59:23.209Z,2.10
2017-10-11T11:01:50.735Z,2.77
2017-10-11T11:04:18.218Z,2.40
2017-10-11T11:06:45.732Z,3.00
2017-10-11T11:09:13.981Z,2.70
2017-10-11T11:11:41.487Z,2.90
2017-10-11T11:14:08.978Z,2.50
2017-10-11T11:16:36.481Z,2.80
2017-10-11T11:19:04.729Z,2.57
2017-10-11T11:21:32.230Z,2.90
2017-10-11T11:23:59.713Z,2.90
2017-10-11T11:26:27.218Z,2.70
2017-10-11T11:28:55.465Z,2.73
2017-10-11T11:31:22.974Z,2.40
2017-10-11T11:33:50.458Z,2.50
2017-10-11T11:36:17.965Z,2.63
2017-10-11T11:38:45.445Z,2.70
2017-10-11T11:41:12.949Z,2.77
2017-10-11T11:43:40.437Z,2.70
2017-10-11T11:46:07.949Z,3.10
2017-10-11T11:48:35.442Z,3.03
2017-10-11T11:51:02.950Z,2.80
2017-10-11T11:53:30.437Z,2.77
2017-10-11T11:55:57.945Z,3.13
2017-10-11T11:58:26.193Z,2.70
2017-10-11T12:00:53.702Z,2.70
2017-10-11T12:03:21.186Z,2.43
2017-10-11T12:05:48.701Z,3.10
2017-10-11T12:08:16.954Z,2.83
2017-10-11T12:10:44.465Z,2.50
2017-10-11T12:13:11.950Z,2.53
2017-10-11T12:15:39.462Z,2.57
2017-10-11T12:18:06.949Z,2.20
2017-10-11T12:20:34.449Z,2.20
2017-10-11T12:23:02.702Z,2.30
2017-10-11T12:25:30.210Z,2.50
2017-10-11T12:27:57.697Z,2.27
2017-10-11T12:30:25.201Z,2.20
2017-10-11T12:32:53.453Z,2.40
2017-10-11T12:35:20.962Z,2.33
2017-10-11T12:37:48.445Z,2.30
2017-10-11T12:40:15.955Z,2.50
2017-10-11T12:42:44.201Z,2.47
2017-10-11T12:45:11.709Z,2.10
2017-10-11T12:47:39.198Z,2.70
2017-10-11T12:50:06.702Z,2.00
2017-10-11T12:52:34.953Z,2.10
2017-10-11T12:55:02.463Z,2.23
2017-10-11T12:57:29.950Z,2.07
2017-10-11T12:59:57.463Z,2.23
2017-10-11T13:02:25.709Z,2.50
2017-10-11T13:04:53.218Z,2.10
2017-10-11T13:07:20.701Z,2.40
2017-10-11T13:09:48.221Z,2.00
2017-10-11T13:12:15.705Z,3.10
2017-10-11T13:14:43.205Z,2.00
2017-10-11T13:17:10.694Z,2.20
2017-10-11T13:19:38.202Z,2.40
2017-10-11T13:22:05.695Z,2.00
2017-10-11T13:24:33.977Z,2.30
2017-10-11T13:27:02.230Z,1.90
2017-10-11T13:29:29.731Z,1.90
2017-10-11T13:31:57.217Z,2.33
2017-10-11T13:34:24.734Z,2.30
2017-10-11T13:36:52.221Z,2.20
2017-10-11T13:39:19.728Z,2.30
2017-10-11T13:41:47.986Z,2.30
2017-10-11T13:44:15.499Z,2.00
2017-10-11T13:46:42.985Z,2.27
2017-10-11T13:49:10.494Z,2.20
2017-10-11T13:51:38.745Z,2.30
2017-10-11T13:54:07.018Z,2.73
2017-10-11T13:56:36.010Z,2.70
2017-10-11T13:59:04.280Z,3.00
2017-10-11T14:01:31.770Z,2.90
2017-10-11T14:04:00.042Z,2.60
2017-10-11T14:06:28.289Z,2.80
2017-10-11T14:08:55.797Z,2.70
2017-10-11T14:11:23.282Z,2.83
2017-10-11T14:13:50.789Z,2.90
2017-10-11T14:16:19.043Z,2.70
2017-10-11T14:18:46.555Z,2.93
2017-10-11T14:21:14.044Z,3.00
2017-10-11T14:23:41.545Z,3.10
2017-10-11T14:26:09.798Z,2.67
2017-10-11T14:28:37.317Z,2.90
2017-10-11T14:31:04.802Z,3.00
2017-10-11T14:33:32.309Z,3.47
2017-10-11T14:35:59.801Z,3.00
2017-10-11T14:38:27.290Z,3.10
2017-10-11T14:40:54.795Z,2.77
2017-10-11T14:43:22.277Z,2.67
2017-10-11T14:45:49.778Z,3.00
2017-10-11T14:48:18.025Z,2.80
2017-10-11T14:50:45.543Z,3.17
2017-10-11T14:53:13.027Z,3.10
2017-10-11T14:55:40.540Z,3.07
2017-10-11T14:58:08.789Z,3.03
2017-10-11T15:00:37.061Z,3.03
2017-10-11T15:03:04.541Z,3.17
2017-10-11T15:05:32.808Z,3.00
2017-10-11T15:08:01.061Z,3.10
2017-10-11T15:10:28.570Z,3.37
2017-10-11T15:12:56.057Z,3.30
2017-10-11T15:15:23.562Z,3.27
2017-10-11T15:17:51.056Z,3.10
2017-10-11T15:20:18.569Z,2.87
2017-10-11T15:22:46.050Z,3.00
2017-10-11T15:25:14.326Z,2.73
2017-10-11T15:27:42.576Z,2.73
2017-10-11T15:30:11.590Z,3.50
2017-10-11T15:32:39.841Z,3.40
2017-10-11T15:35:08.853Z,3.20
2017-10-11T15:37:37.108Z,3.23
2017-10-11T15:40:04.613Z,3.03
2017-10-11T15:42:32.100Z,2.90
2017-10-11T15:44:59.601Z,3.87
2017-10-11T15:47:27.091Z,2.43
2017-10-11T15:49:54.594Z,3.10
2017-10-11T15:52:22.075Z,2.50
2017-10-11T15:54:50.360Z,2.20
2017-10-11T15:57:18.605Z,2.53
2017-10-11T15:59:46.111Z,2.30
2017-10-11T16:02:13.602Z,2.53
2017-10-11T16:04:41.112Z,2.33
2017-10-11T16:07:09.361Z,2.63
2017-10-11T16:09:37.644Z,2.47
2017-10-11T16:12:06.633Z,2.70
2017-10-11T16:14:34.901Z,2.53
2017-10-11T16:17:02.385Z,2.40
2017-10-11T16:19:30.658Z,2.43
2017-10-11T16:21:58.918Z,2.27
2017-10-11T16:24:26.426Z,2.67
2017-10-11T16:26:53.909Z,2.70
2017-10-11T16:29:21.417Z,2.23
2017-10-11T16:31:49.673Z,2.70
2017-10-11T16:34:17.949Z,2.77
2017-10-11T16:36:46.942Z,3.27
2017-10-11T16:39:15.954Z,2.90
2017-10-11T16:41:44.202Z,2.97
2017-10-11T16:44:11.705Z,2.53
2017-10-11T16:46:39.185Z,2.80
2017-10-11T16:49:06.698Z,2.40
2017-10-11T16:51:34.954Z,2.57
2017-10-11T16:54:02.457Z,2.53
2017-10-11T16:56:29.941Z,2.70
2017-10-11T16:58:57.446Z,2.80
2017-10-11T17:01:25.698Z,3.37
2017-10-11T17:03:53.202Z,5.60
2017-10-11T17:06:20.681Z,2.90
2017-10-11T17:08:48.187Z,3.70
2017-10-11T17:11:16.442Z,4.07
2017-10-11T17:13:43.950Z,4.90
2017-10-11T17:16:11.437Z,9.47
2017-10-11T17:18:38.954Z,11.70
2017-10-11T17:21:07.346Z,15.63
2017-10-11T17:23:34.862Z,4.50
2017-10-11T17:26:02.349Z,4.40
2017-10-11T17:28:30.622Z,2.90
2017-10-11T17:30:58.871Z,2.70
2017-10-11T17:33:26.382Z,2.53
2017-10-11T17:35:53.870Z,3.10
2017-10-11T17:38:21.373Z,3.27
2017-10-11T17:40:49.618Z,2.70
2017-10-11T17:43:17.134Z,2.90
2017-10-11T17:45:44.621Z,3.50
2017-10-11T17:48:12.135Z,4.23
2017-10-11T17:50:40.387Z,3.30
2017-10-11T17:53:07.908Z,3.33
2017-10-11T17:55:35.389Z,3.30
2017-10-11T17:58:02.899Z,3.10
2017-10-11T18:00:30.391Z,30.93
2017-10-11T18:02:57.897Z,9.13
2017-10-11T18:05:26.160Z,3.83
2017-10-11T18:07:53.670Z,4.30
2017-10-11T18:10:21.157Z,4.00
2017-10-11T18:12:48.662Z,3.73
2017-10-11T18:15:16.150Z,4.50
2017-10-11T18:17:43.653Z,4.33
2017-10-11T18:20:11.910Z,4.10
2017-10-11T18:22:39.419Z,3.80
2017-10-11T18:25:06.914Z,3.60
2017-10-11T18:27:34.417Z,4.00
2017-10-11T18:30:02.665Z,4.20
2017-10-11T18:32:30.185Z,4.57
2017-10-11T18:34:57.674Z,4.27
2017-10-11T18:37:25.161Z,4.73
2017-10-11T18:39:53.433Z,4.87
2017-10-11T18:42:21.680Z,4.60
2017-10-11T18:44:49.186Z,4.80
2017-10-11T18:47:16.669Z,4.67
2017-10-11T18:49:44.178Z,4.97
2017-10-11T18:52:12.433Z,25.60
2017-10-11T18:54:39.942Z,6.13
2017-10-11T18:57:07.430Z,5.00
2017-10-11T18:59:34.934Z,5.60
2017-10-11T19:02:03.186Z,5.60
2017-10-11T19:04:30.691Z,5.17
2017-10-11T19:06:58.181Z,5.27
2017-10-11T19:09:25.691Z,5.40
2017-10-11T19:11:53.943Z,5.17
2017-10-11T19:14:22.240Z,4.93
2017-10-11T19:16:49.742Z,5.03
2017-10-11T19:19:17.250Z,6.20
2017-10-11T19:21:45.506Z,5.23
2017-10-11T19:24:13.022Z,5.67
2017-10-11T19:26:40.514Z,5.50
2017-10-11T19:29:08.022Z,5.40
2017-10-11T19:31:35.505Z,5.00
2017-10-11T19:34:03.006Z,5.57
2017-10-11T19:36:31.262Z,5.90
2017-10-11T19:38:58.765Z,6.70
2017-10-11T19:41:26.266Z,5.47
2017-10-11T19:43:53.776Z,5.50
2017-10-11T19:46:22.052Z,5.90
2017-10-11T19:48:50.322Z,5.50
2017-10-11T19:51:18.575Z,5.70
2017-10-11T19:53:46.862Z,5.43
2017-10-11T19:56:14.358Z,37.27
2017-10-11T19:58:41.874Z,9.77
2017-10-11T20:01:09.358Z,5.73
2017-10-11T20:03:37.633Z,8.30
2017-10-11T20:06:05.886Z,5.60
2017-10-11T20:08:33.390Z,6.13
2017-10-11T20:11:00.874Z,5.80
2017-10-11T20:13:28.377Z,5.83
2017-10-11T20:15:56.625Z,6.20
2017-10-11T20:18:24.134Z,6.00
2017-10-11T20:20:51.621Z,6.17
2017-10-11T20:23:19.125Z,5.37
2017-10-11T20:25:47.373Z,5.60
2017-10-11T20:28:14.894Z,5.67
2017-10-11T20:30:42.381Z,5.60
2017-10-11T20:33:09.890Z,5.63
2017-10-11T20:35:37.377Z,5.10
2017-10-11T20:38:04.894Z,5.83
2017-10-11T20:40:33.158Z,5.47
2017-10-11T20:43:00.666Z,5.40
2017-10-11T20:45:28.158Z,5.20
2017-10-11T20:47:56.431Z,5.47
2017-10-11T20:50:23.913Z,5.57
2017-10-11T20:52:52.181Z,5.43
2017-10-11T20:55:20.433Z,4.93
2017-10-11T20:57:47.939Z,5.57
2017-10-11T21:00:16.189Z,5.37
2017-10-11T21:02:43.694Z,5.60
2017-10-11T21:05:11.186Z,5.40
2017-10-11T21:07:38.694Z,5.50
2017-10-11T21:10:06.181Z,5.60
2017-10-11T21:12:33.690Z,5.57
2017-10-11T21:15:01.937Z,5.40
2017-10-11T21:17:29.446Z,5.30
2017-10-11T21:19:56.928Z,5.13
2017-10-11T21:22:24.437Z,6.47
2017-10-11T21:24:51.921Z,5.63
2017-10-11T21:27:19.425Z,6.70
2017-10-11T21:29:46.905Z,5.93
2017-10-11T21:32:15.177Z,6.00
2017-10-11T21:34:44.165Z,6.57
2017-10-11T21:37:11.678Z,6.07
2017-10-11T21:39:39.165Z,6.00
2017-10-11T21:42:06.669Z,5.60
2017-10-11T21:44:34.916Z,5.50
2017-10-11T21:47:02.426Z,6.03
2017-10-11T21:49:29.913Z,5.80
2017-10-11T21:51:57.418Z,6.20
2017-10-11T21:54:25.674Z,6.50
2017-10-11T21:56:53.182Z,6.27
2017-10-11T21:59:20.665Z,5.90
2017-10-11T22:01:48.233Z,7.20
2017-10-11T22:04:15.722Z,6.37
2017-10-11T22:06:43.998Z,6.83
2017-10-11T22:09:12.250Z,7.10
2017-10-11T22:11:39.762Z,9.80
2017-10-11T22:14:07.245Z,6.53
2017-10-11T22:16:34.745Z,6.33
2017-10-11T22:19:02.998Z,6.43
2017-10-11T22:21:30.501Z,6.37
2017-10-11T22:23:57.989Z,6.00
2017-10-11T22:26:25.489Z,6.30
2017-10-11T22:28:52.985Z,6.73
2017-10-11T22:31:20.493Z,6.73
2017-10-11T22:33:47.982Z,7.00
2017-10-11T22:36:15.498Z,7.43
2017-10-11T22:38:42.977Z,6.90
2017-10-11T22:41:11.990Z,6.57
2017-10-11T22:43:40.245Z,6.77
2017-10-11T22:46:08.521Z,8.30
2017-10-11T22:48:36.769Z,7.27
2017-10-11T22:51:04.257Z,8.17
2017-10-11T22:53:32.529Z,6.83
2017-10-11T22:56:00.018Z,7.67
2017-10-11T22:58:27.526Z,7.83
2017-10-11T23:00:55.014Z,7.20
2017-10-11T23:03:23.369Z,7.50
2017-10-11T23:05:50.855Z,7.40
2017-10-11T23:08:19.136Z,7.30
2017-10-11T23:10:47.397Z,7.20
2017-10-11T23:13:14.905Z,7.00
2017-10-11T23:15:42.394Z,7.50
2017-10-11T23:18:09.922Z,7.10
2017-10-11T23:20:37.422Z,7.50
2017-10-11T23:23:04.930Z,7.30
2017-10-11T23:25:32.418Z,6.70
2017-10-11T23:27:59.926Z,7.60
2017-10-11T23:30:27.418Z,7.43
2017-10-11T23:32:54.926Z,7.63
2017-10-11T23:35:23.178Z,7.40
2017-10-11T23:37:50.681Z,7.70
2017-10-11T23:40:18.166Z,7.50
2017-10-11T23:42:45.679Z,7.23
2017-10-11T23:45:13.926Z,7.77
2017-10-11T23:47:41.430Z,8.47
2017-10-11T23:50:08.917Z,8.30
2017-10-11T23:52:36.426Z,8.10
2017-10-11T23:55:04.687Z,8.60
2017-10-11T23:57:32.193Z,8.10
2017-10-11T23:59:59.681Z,8.47
